sensor_id;sensor_type;location;lat;lon;timestamp;pressure;altitude;pressure_sealevel;temperature;humidity
81816;BME280;71249;52.084;5.304;2023-07-13T00:02:30;101383.0;;;17.93;68.23
81816;BME280;71249;52.084;5.304;2023-07-13T00:04:06;101382.0;;;17.79;69.05
81816;BME280;71249;52.084;5.304;2023-07-13T00:05:42;101378.0;;;17.84;68.77
81816;BME280;71249;52.084;5.304;2023-07-13T00:08:54;101380.0;;;17.7;69.24
81816;BME280;71249;52.084;5.304;2023-07-13T00:10:31;101378.0;;;17.86;68.55
81816;BME280;71249;52.084;5.304;2023-07-13T00:12:23;101374.0;;;17.66;69.11
81816;BME280;71249;52.084;5.304;2023-07-13T00:14:04;101377.0;;;17.73;68.66
81816;BME280;71249;52.084;5.304;2023-07-13T00:17:16;101381.0;;;17.7;68.24
81816;BME280;71249;52.084;5.304;2023-07-13T00:18:52;101378.0;;;17.75;68.91
81816;BME280;71249;52.084;5.304;2023-07-13T00:20:28;101373.0;;;17.66;68.55
81816;BME280;71249;52.084;5.304;2023-07-13T00:23:41;101372.0;;;17.71;68.33
81816;BME280;71249;52.084;5.304;2023-07-13T00:25:18;101370.0;;;17.77;67.94
81816;BME280;71249;52.084;5.304;2023-07-13T00:26:55;101373.0;;;17.52;68.99
81816;BME280;71249;52.084;5.304;2023-07-13T00:30:09;101375.0;;;17.41;69.62
81816;BME280;71249;52.084;5.304;2023-07-13T00:31:47;101370.0;;;17.27;70.36
81816;BME280;71249;52.084;5.304;2023-07-13T00:33:23;101374.0;;;17.27;70.3
81816;BME280;71249;52.084;5.304;2023-07-13T00:34:59;101368.0;;;17.46;68.61
81816;BME280;71249;52.084;5.304;2023-07-13T00:38:11;101372.0;;;17.28;69.58
81816;BME280;71249;52.084;5.304;2023-07-13T00:39:47;101367.0;;;17.25;69.66
81816;BME280;71249;52.084;5.304;2023-07-13T00:41:23;101370.0;;;17.29;69.02
81816;BME280;71249;52.084;5.304;2023-07-13T00:44:36;101371.0;;;17.25;69.39
81816;BME280;71249;52.084;5.304;2023-07-13T00:46:20;101377.0;;;17.32;69.13
81816;BME280;71249;52.084;5.304;2023-07-13T00:48:00;101380.0;;;17.11;70.12
81816;BME280;71249;52.084;5.304;2023-07-13T00:49:36;101382.0;;;17.14;70.2
81816;BME280;71249;52.084;5.304;2023-07-13T00:52:53;101378.0;;;17.2;70.14
81816;BME280;71249;52.084;5.304;2023-07-13T00:54:33;101380.0;;;17.06;70.48
81816;BME280;71249;52.084;5.304;2023-07-13T00:56:16;101377.0;;;17.0;70.45
81816;BME280;71249;52.084;5.304;2023-07-13T00:57:51;101376.0;;;17.06;70.63
81816;BME280;71249;52.084;5.304;2023-07-13T01:01:05;101376.0;;;17.12;70.16
81816;BME280;71249;52.084;5.304;2023-07-13T01:02:44;101361.0;;;17.11;70.12
81816;BME280;71249;52.084;5.304;2023-07-13T01:04:23;101368.0;;;17.09;70.2
81816;BME280;71249;52.084;5.304;2023-07-13T01:07:36;101372.0;;;17.02;70.78
81816;BME280;71249;52.084;5.304;2023-07-13T01:09:14;101373.0;;;16.93;70.88
81816;BME280;71249;52.084;5.304;2023-07-13T01:10:52;101377.0;;;16.78;71.61
81816;BME280;71249;52.084;5.304;2023-07-13T01:14:05;101380.0;;;16.71;72.58
81816;BME280;71249;52.084;5.304;2023-07-13T01:15:43;101378.0;;;16.79;71.86
81816;BME280;71249;52.084;5.304;2023-07-13T01:17:20;101380.0;;;16.87;71.27
81816;BME280;71249;52.084;5.304;2023-07-13T01:18:56;101391.0;;;16.72;71.99
81816;BME280;71249;52.084;5.304;2023-07-13T01:22:13;101395.0;;;16.68;72.13
81816;BME280;71249;52.084;5.304;2023-07-13T01:23:51;101394.0;;;16.56;72.74
81816;BME280;71249;52.084;5.304;2023-07-13T01:25:28;101389.0;;;16.52;73.0
81816;BME280;71249;52.084;5.304;2023-07-13T01:28:42;101389.0;;;16.41;73.24
81816;BME280;71249;52.084;5.304;2023-07-13T01:30:19;101392.0;;;16.46;72.87
81816;BME280;71249;52.084;5.304;2023-07-13T01:31:55;101393.0;;;16.36;73.8
81816;BME280;71249;52.084;5.304;2023-07-13T01:33:31;101389.0;;;16.32;73.69
81816;BME280;71249;52.084;5.304;2023-07-13T01:36:43;101394.0;;;16.43;73.08
81816;BME280;71249;52.084;5.304;2023-07-13T01:38:21;101390.0;;;16.28;73.77
81816;BME280;71249;52.084;5.304;2023-07-13T01:39:59;101389.0;;;16.28;73.72
81816;BME280;71249;52.084;5.304;2023-07-13T01:43:11;101385.0;;;16.13;74.06
81816;BME280;71249;52.084;5.304;2023-07-13T01:44:48;101384.0;;;16.13;74.27
81816;BME280;71249;52.084;5.304;2023-07-13T01:46:24;101387.0;;;16.09;74.41
81816;BME280;71249;52.084;5.304;2023-07-13T01:49:37;101390.0;;;16.06;74.55
81816;BME280;71249;52.084;5.304;2023-07-13T01:51:13;101388.0;;;15.97;74.92
81816;BME280;71249;52.084;5.304;2023-07-13T01:52:49;101389.0;;;15.93;74.83
81816;BME280;71249;52.084;5.304;2023-07-13T01:54:25;101394.0;;;15.93;75.2
81816;BME280;71249;52.084;5.304;2023-07-13T01:57:37;101390.0;;;15.98;74.77
81816;BME280;71249;52.084;5.304;2023-07-13T01:59:13;101391.0;;;15.89;75.11
81816;BME280;71249;52.084;5.304;2023-07-13T02:00:51;101392.0;;;15.88;75.16
81816;BME280;71249;52.084;5.304;2023-07-13T02:04:04;101392.0;;;15.78;75.42
81816;BME280;71249;52.084;5.304;2023-07-13T02:05:40;101386.0;;;15.81;75.55
81816;BME280;71249;52.084;5.304;2023-07-13T02:07:16;101389.0;;;15.73;75.56
81816;BME280;71249;52.084;5.304;2023-07-13T02:10:30;101390.0;;;15.85;75.27
81816;BME280;71249;52.084;5.304;2023-07-13T02:12:06;101394.0;;;15.74;75.53
81816;BME280;71249;52.084;5.304;2023-07-13T02:13:43;101398.0;;;15.75;75.58
81816;BME280;71249;52.084;5.304;2023-07-13T02:15:19;101400.0;;;15.81;75.11
81816;BME280;71249;52.084;5.304;2023-07-13T02:18:31;101405.0;;;15.73;75.63
81816;BME280;71249;52.084;5.304;2023-07-13T02:20:08;101408.0;;;15.67;75.94
81816;BME280;71249;52.084;5.304;2023-07-13T02:21:44;101406.0;;;15.65;75.8
81816;BME280;71249;52.084;5.304;2023-07-13T02:24:57;101401.0;;;15.58;76.19
81816;BME280;71249;52.084;5.304;2023-07-13T02:26:33;101405.0;;;15.54;76.19
81816;BME280;71249;52.084;5.304;2023-07-13T02:28:10;101403.0;;;15.54;76.11
81816;BME280;71249;52.084;5.304;2023-07-13T02:31:22;101403.0;;;15.54;75.87
81816;BME280;71249;52.084;5.304;2023-07-13T02:32:58;101401.0;;;15.52;76.11
81816;BME280;71249;52.084;5.304;2023-07-13T02:34:34;101403.0;;;15.41;76.58
81816;BME280;71249;52.084;5.304;2023-07-13T02:36:12;101406.0;;;15.38;76.77
81816;BME280;71249;52.084;5.304;2023-07-13T02:39:25;101408.0;;;15.34;76.52
81816;BME280;71249;52.084;5.304;2023-07-13T02:41:01;101412.0;;;15.34;76.61
81816;BME280;71249;52.084;5.304;2023-07-13T02:42:37;101415.0;;;15.27;77.11
81816;BME280;71249;52.084;5.304;2023-07-13T02:45:51;101411.0;;;15.28;77.0
81816;BME280;71249;52.084;5.304;2023-07-13T02:47:26;101412.0;;;15.24;77.02
81816;BME280;71249;52.084;5.304;2023-07-13T02:49:03;101409.0;;;15.29;76.72
81816;BME280;71249;52.084;5.304;2023-07-13T02:52:16;101407.0;;;15.25;76.81
81816;BME280;71249;52.084;5.304;2023-07-13T02:53:52;101406.0;;;15.15;77.25
81816;BME280;71249;52.084;5.304;2023-07-13T02:55:28;101405.0;;;15.15;77.36
81816;BME280;71249;52.084;5.304;2023-07-13T02:58:41;101407.0;;;15.11;77.36
81816;BME280;71249;52.084;5.304;2023-07-13T03:00:18;101409.0;;;15.09;77.36
81816;BME280;71249;52.084;5.304;2023-07-13T03:01:54;101408.0;;;15.09;77.61
81816;BME280;71249;52.084;5.304;2023-07-13T03:03:30;101414.0;;;15.06;77.59
81816;BME280;71249;52.084;5.304;2023-07-13T03:06:43;101412.0;;;15.0;77.81
81816;BME280;71249;52.084;5.304;2023-07-13T03:08:19;101411.0;;;15.02;77.62
81816;BME280;71249;52.084;5.304;2023-07-13T03:09:56;101414.0;;;15.03;77.83
81816;BME280;71249;52.084;5.304;2023-07-13T03:13:09;101416.0;;;15.01;77.77
81816;BME280;71249;52.084;5.304;2023-07-13T03:14:45;101418.0;;;14.99;78.16
81816;BME280;71249;52.084;5.304;2023-07-13T03:16:21;101418.0;;;14.97;78.11
81816;BME280;71249;52.084;5.304;2023-07-13T03:19:34;101415.0;;;14.92;78.41
81816;BME280;71249;52.084;5.304;2023-07-13T03:21:10;101415.0;;;14.84;78.55
81816;BME280;71249;52.084;5.304;2023-07-13T03:22:47;101416.0;;;14.79;78.44
81816;BME280;71249;52.084;5.304;2023-07-13T03:24:23;101417.0;;;14.79;78.77
81816;BME280;71249;52.084;5.304;2023-07-13T03:27:41;101418.0;;;14.79;78.88
81816;BME280;71249;52.084;5.304;2023-07-13T03:29:17;101423.0;;;14.82;78.73
81816;BME280;71249;52.084;5.304;2023-07-13T03:30:59;101424.0;;;14.78;78.83
81816;BME280;71249;52.084;5.304;2023-07-13T03:34:11;101426.0;;;14.77;79.16
81816;BME280;71249;52.084;5.304;2023-07-13T03:35:48;101427.0;;;14.74;79.11
81816;BME280;71249;52.084;5.304;2023-07-13T03:37:24;101433.0;;;14.74;79.03
81816;BME280;71249;52.084;5.304;2023-07-13T03:39:02;101433.0;;;14.87;78.61
81816;BME280;71249;52.084;5.304;2023-07-13T03:42:14;101434.0;;;14.76;78.86
81816;BME280;71249;52.084;5.304;2023-07-13T03:43:51;101432.0;;;14.7;79.05
81816;BME280;71249;52.084;5.304;2023-07-13T03:45:27;101438.0;;;14.77;79.06
81816;BME280;71249;52.084;5.304;2023-07-13T03:48:40;101436.0;;;14.71;79.22
81816;BME280;71249;52.084;5.304;2023-07-13T03:50:16;101433.0;;;14.66;79.52
81816;BME280;71249;52.084;5.304;2023-07-13T03:51:52;101439.0;;;14.66;79.52
81816;BME280;71249;52.084;5.304;2023-07-13T03:55:05;101441.0;;;14.76;79.16
81816;BME280;71249;52.084;5.304;2023-07-13T03:56:41;101443.0;;;14.75;79.2
81816;BME280;71249;52.084;5.304;2023-07-13T03:58:36;101443.0;;;14.9;78.77
81816;BME280;71249;52.084;5.304;2023-07-13T04:00:13;101444.0;;;14.82;79.2
81816;BME280;71249;52.084;5.304;2023-07-13T04:03:26;101448.0;;;14.77;79.61
81816;BME280;71249;52.084;5.304;2023-07-13T04:05:04;101451.0;;;14.8;79.5
81816;BME280;71249;52.084;5.304;2023-07-13T04:06:40;101455.0;;;14.85;79.45
81816;BME280;71249;52.084;5.304;2023-07-13T04:08:16;101452.0;;;14.8;79.84
81816;BME280;71249;52.084;5.304;2023-07-13T04:11:30;101455.0;;;14.85;79.62
81816;BME280;71249;52.084;5.304;2023-07-13T04:13:08;101451.0;;;14.87;79.48
81816;BME280;71249;52.084;5.304;2023-07-13T04:14:44;101462.0;;;14.89;79.52
81816;BME280;71249;52.084;5.304;2023-07-13T04:17:57;101460.0;;;14.87;79.91
81816;BME280;71249;52.084;5.304;2023-07-13T04:19:34;101466.0;;;15.01;79.58
81816;BME280;71249;52.084;5.304;2023-07-13T04:21:11;101468.0;;;15.09;79.56
81816;BME280;71249;52.084;5.304;2023-07-13T04:24:24;101468.0;;;15.11;79.74
81816;BME280;71249;52.084;5.304;2023-07-13T04:26:00;101461.0;;;15.25;79.52
81816;BME280;71249;52.084;5.304;2023-07-13T04:27:36;101468.0;;;15.32;79.7
81816;BME280;71249;52.084;5.304;2023-07-13T04:29:12;101464.0;;;15.4;79.84
81816;BME280;71249;52.084;5.304;2023-07-13T04:32:25;101469.0;;;15.54;79.67
81816;BME280;71249;52.084;5.304;2023-07-13T04:34:02;101468.0;;;15.6;79.49
81816;BME280;71249;52.084;5.304;2023-07-13T04:35:38;101471.0;;;15.63;79.86
81816;BME280;71249;52.084;5.304;2023-07-13T04:38:51;101473.0;;;15.59;80.09
81816;BME280;71249;52.084;5.304;2023-07-13T04:40:28;101473.0;;;15.72;79.92
81816;BME280;71249;52.084;5.304;2023-07-13T04:42:05;101468.0;;;15.88;79.44
81816;BME280;71249;52.084;5.304;2023-07-13T04:45:18;101470.0;;;15.94;79.3
81816;BME280;71249;52.084;5.304;2023-07-13T04:46:54;101467.0;;;16.07;78.92
81816;BME280;71249;52.084;5.304;2023-07-13T04:48:30;101473.0;;;16.09;78.77
81816;BME280;71249;52.084;5.304;2023-07-13T04:50:07;101475.0;;;16.11;79.03
81816;BME280;71249;52.084;5.304;2023-07-13T04:53:20;101474.0;;;16.18;78.92
81816;BME280;71249;52.084;5.304;2023-07-13T04:54:56;101475.0;;;16.21;78.8
81816;BME280;71249;52.084;5.304;2023-07-13T04:56:33;101474.0;;;16.25;78.62
81816;BME280;71249;52.084;5.304;2023-07-13T04:59:45;101472.0;;;16.28;78.97
81816;BME280;71249;52.084;5.304;2023-07-13T05:01:21;101480.0;;;16.41;78.72
81816;BME280;71249;52.084;5.304;2023-07-13T05:02:58;101478.0;;;16.5;78.22
81816;BME280;71249;52.084;5.304;2023-07-13T05:07:46;101476.0;;;16.64;77.67
81816;BME280;71249;52.084;5.304;2023-07-13T05:09:23;101480.0;;;16.8;77.23
81816;BME280;71249;52.084;5.304;2023-07-13T05:10:59;101485.0;;;16.72;77.31
81816;BME280;71249;52.084;5.304;2023-07-13T05:14:12;101483.0;;;16.84;77.05
81816;BME280;71249;52.084;5.304;2023-07-13T05:15:55;101484.0;;;16.86;77.44
81816;BME280;71249;52.084;5.304;2023-07-13T05:17:32;101489.0;;;16.93;77.52
81816;BME280;71249;52.084;5.304;2023-07-13T05:20:46;101491.0;;;17.0;76.83
81816;BME280;71249;52.084;5.304;2023-07-13T05:22:23;101490.0;;;17.02;76.99
81816;BME280;71249;52.084;5.304;2023-07-13T05:27:11;101497.0;;;17.11;77.16
81816;BME280;71249;52.084;5.304;2023-07-13T05:28:47;101495.0;;;17.27;76.45
81816;BME280;71249;52.084;5.304;2023-07-13T05:30:23;101497.0;;;17.3;76.39
81816;BME280;71249;52.084;5.304;2023-07-13T05:32:00;101498.0;;;17.41;76.11
81816;BME280;71249;52.084;5.304;2023-07-13T05:35:12;101497.0;;;17.45;76.0
81816;BME280;71249;52.084;5.304;2023-07-13T05:36:48;101501.0;;;17.45;76.02
81816;BME280;71249;52.084;5.304;2023-07-13T05:38:25;101497.0;;;17.47;76.34
81816;BME280;71249;52.084;5.304;2023-07-13T05:41:38;101498.0;;;17.54;76.53
81816;BME280;71249;52.084;5.304;2023-07-13T05:43:14;101503.0;;;17.63;76.02
81816;BME280;71249;52.084;5.304;2023-07-13T05:44:51;101503.0;;;17.66;75.8
81816;BME280;71249;52.084;5.304;2023-07-13T05:48:04;101506.0;;;17.68;75.81
81816;BME280;71249;52.084;5.304;2023-07-13T05:51:16;101508.0;;;17.88;75.33
81816;BME280;71249;52.084;5.304;2023-07-13T05:52:52;101515.0;;;17.77;75.53
81816;BME280;71249;52.084;5.304;2023-07-13T05:56:05;101514.0;;;17.91;75.12
81816;BME280;71249;52.084;5.304;2023-07-13T05:57:41;101517.0;;;18.02;74.83
81816;BME280;71249;52.084;5.304;2023-07-13T05:59:17;101518.0;;;17.84;74.97
81816;BME280;71249;52.084;5.304;2023-07-13T06:02:37;101531.0;;;18.02;74.72
81816;BME280;71249;52.084;5.304;2023-07-13T06:04:13;101527.0;;;18.07;74.75
81816;BME280;71249;52.084;5.304;2023-07-13T06:05:49;101526.0;;;18.18;74.98
81816;BME280;71249;52.084;5.304;2023-07-13T06:09:01;101528.0;;;18.2;74.58
81816;BME280;71249;52.084;5.304;2023-07-13T06:10:38;101535.0;;;18.14;75.06
81816;BME280;71249;52.084;5.304;2023-07-13T06:12:14;101532.0;;;18.25;74.94
81816;BME280;71249;52.084;5.304;2023-07-13T06:13:51;101540.0;;;18.11;74.5
81816;BME280;71249;52.084;5.304;2023-07-13T06:17:04;101539.0;;;18.36;74.44
81816;BME280;71249;52.084;5.304;2023-07-13T06:18:41;101540.0;;;18.47;74.47
81816;BME280;71249;52.084;5.304;2023-07-13T06:20:18;101543.0;;;18.43;74.19
81816;BME280;71249;52.084;5.304;2023-07-13T06:23:30;101552.0;;;18.54;74.22
81816;BME280;71249;52.084;5.304;2023-07-13T06:25:07;101555.0;;;18.68;73.73
81816;BME280;71249;52.084;5.304;2023-07-13T06:26:43;101549.0;;;18.7;73.19
81816;BME280;71249;52.084;5.304;2023-07-13T06:29:55;101549.0;;;18.75;73.19
81816;BME280;71249;52.084;5.304;2023-07-13T06:31:31;101552.0;;;18.79;73.33
81816;BME280;71249;52.084;5.304;2023-07-13T06:33:07;101547.0;;;18.88;73.33
81816;BME280;71249;52.084;5.304;2023-07-13T06:34:43;101553.0;;;18.7;73.08
81816;BME280;71249;52.084;5.304;2023-07-13T06:37:55;101555.0;;;18.86;73.55
81816;BME280;71249;52.084;5.304;2023-07-13T06:39:32;101556.0;;;18.84;73.05
81816;BME280;71249;52.084;5.304;2023-07-13T06:41:09;101560.0;;;18.91;73.38
81816;BME280;71249;52.084;5.304;2023-07-13T06:44:21;101559.0;;;18.95;72.83
81816;BME280;71249;52.084;5.304;2023-07-13T06:45:57;101558.0;;;19.0;72.78
81816;BME280;71249;52.084;5.304;2023-07-13T06:47:34;101560.0;;;18.79;72.77
81816;BME280;71249;52.084;5.304;2023-07-13T06:50:48;101558.0;;;19.02;72.25
81816;BME280;71249;52.084;5.304;2023-07-13T06:52:25;101557.0;;;19.03;72.56
81816;BME280;71249;52.084;5.304;2023-07-13T06:54:01;101553.0;;;19.05;72.81
81816;BME280;71249;52.084;5.304;2023-07-13T06:55:37;101556.0;;;19.07;72.2
81816;BME280;71249;52.084;5.304;2023-07-13T06:58:50;101566.0;;;19.13;72.37
81816;BME280;71249;52.084;5.304;2023-07-13T07:00:26;101575.0;;;19.05;72.5
81816;BME280;71249;52.084;5.304;2023-07-13T07:02:03;101570.0;;;19.2;72.16
81816;BME280;71249;52.084;5.304;2023-07-13T07:05:16;101565.0;;;19.32;72.41
81816;BME280;71249;52.084;5.304;2023-07-13T07:06:52;101567.0;;;19.37;72.97
81816;BME280;71249;52.084;5.304;2023-07-13T07:08:28;101571.0;;;19.53;72.17
81816;BME280;71249;52.084;5.304;2023-07-13T07:11:42;101574.0;;;19.27;71.42
81816;BME280;71249;52.084;5.304;2023-07-13T07:13:18;101575.0;;;19.52;71.55
81816;BME280;71249;52.084;5.304;2023-07-13T07:14:55;101581.0;;;19.52;71.52
81816;BME280;71249;52.084;5.304;2023-07-13T07:16:31;101588.0;;;19.48;71.27
81816;BME280;71249;52.084;5.304;2023-07-13T07:19:43;101582.0;;;19.5;71.94
81816;BME280;71249;52.084;5.304;2023-07-13T07:21:19;101584.0;;;19.57;73.05
81816;BME280;71249;52.084;5.304;2023-07-13T07:22:55;101585.0;;;19.38;73.06
81816;BME280;71249;52.084;5.304;2023-07-13T07:26:08;101590.0;;;19.45;73.3
81816;BME280;71249;52.084;5.304;2023-07-13T07:27:44;101589.0;;;19.36;72.5
81816;BME280;71249;52.084;5.304;2023-07-13T07:29:21;101589.0;;;19.53;72.77
81816;BME280;71249;52.084;5.304;2023-07-13T07:32:34;101595.0;;;19.27;74.92
81816;BME280;71249;52.084;5.304;2023-07-13T07:34:10;101589.0;;;19.36;74.8
81816;BME280;71249;52.084;5.304;2023-07-13T07:35:47;101592.0;;;19.18;75.3
81816;BME280;71249;52.084;5.304;2023-07-13T07:39:00;101589.0;;;19.43;75.28
81816;BME280;71249;52.084;5.304;2023-07-13T07:40:36;101584.0;;;19.27;76.61
81816;BME280;71249;52.084;5.304;2023-07-13T07:42:13;101582.0;;;19.34;76.33
81816;BME280;71249;52.084;5.304;2023-07-13T07:43:49;101575.0;;;19.41;74.89
81816;BME280;71249;52.084;5.304;2023-07-13T07:47:03;101577.0;;;19.5;74.83
81816;BME280;71249;52.084;5.304;2023-07-13T07:48:40;101577.0;;;19.54;75.12
81816;BME280;71249;52.084;5.304;2023-07-13T07:50:16;101573.0;;;19.52;76.36
81816;BME280;71249;52.084;5.304;2023-07-13T07:53:28;101580.0;;;19.59;76.47
81816;BME280;71249;52.084;5.304;2023-07-13T07:55:06;101575.0;;;19.62;77.08
81816;BME280;71249;52.084;5.304;2023-07-13T07:56:43;101578.0;;;19.82;76.05
81816;BME280;71249;52.084;5.304;2023-07-13T07:58:20;101573.0;;;19.79;75.16
81816;BME280;71249;52.084;5.304;2023-07-13T08:01:33;101572.0;;;19.89;76.09
81816;BME280;71249;52.084;5.304;2023-07-13T08:03:09;101577.0;;;19.87;74.67
81816;BME280;71249;52.084;5.304;2023-07-13T08:08:00;101580.0;;;19.89;72.25
81816;BME280;71249;52.084;5.304;2023-07-13T08:09:36;101577.0;;;19.93;74.44
81816;BME280;71249;52.084;5.304;2023-07-13T08:11:13;101578.0;;;19.96;74.44
81816;BME280;71249;52.084;5.304;2023-07-13T08:14:25;101577.0;;;20.09;73.72
81816;BME280;71249;52.084;5.304;2023-07-13T08:16:03;101570.0;;;20.05;72.45
81816;BME280;71249;52.084;5.304;2023-07-13T08:17:41;101570.0;;;20.09;73.19
81816;BME280;71249;52.084;5.304;2023-07-13T08:19:17;101577.0;;;20.16;72.06
81816;BME280;71249;52.084;5.304;2023-07-13T08:22:30;101580.0;;;20.38;73.99
81816;BME280;71249;52.084;5.304;2023-07-13T08:24:06;101575.0;;;20.18;70.52
81816;BME280;71249;52.084;5.304;2023-07-13T08:25:50;101574.0;;;20.57;72.05
81816;BME280;71249;52.084;5.304;2023-07-13T08:29:04;101578.0;;;20.68;73.36
81816;BME280;71249;52.084;5.304;2023-07-13T08:30:40;101578.0;;;20.8;67.39
81816;BME280;71249;52.084;5.304;2023-07-13T08:32:17;101578.0;;;20.73;66.94
81816;BME280;71249;52.084;5.304;2023-07-13T08:33:55;101586.0;;;20.72;67.22
81816;BME280;71249;52.084;5.304;2023-07-13T08:37:08;101594.0;;;20.92;65.91
81816;BME280;71249;52.084;5.304;2023-07-13T08:38:45;101587.0;;;20.58;62.05
81816;BME280;71249;52.084;5.304;2023-07-13T08:40:24;101590.0;;;20.72;63.27
81816;BME280;71249;52.084;5.304;2023-07-13T08:43:49;101592.0;;;20.68;64.27
81816;BME280;71249;52.084;5.304;2023-07-13T08:45:40;101592.0;;;20.56;64.33
81816;BME280;71249;52.084;5.304;2023-07-13T08:47:21;101600.0;;;20.36;64.59
81816;BME280;71249;52.084;5.304;2023-07-13T08:49:03;101600.0;;;20.55;66.75
81816;BME280;71249;52.084;5.304;2023-07-13T08:50:49;101606.0;;;20.06;65.97
81816;BME280;71249;52.084;5.304;2023-07-13T08:54:20;101608.0;;;20.34;66.06
81816;BME280;71249;52.084;5.304;2023-07-13T08:55:59;101605.0;;;20.31;68.77
81816;BME280;71249;52.084;5.304;2023-07-13T08:57:38;101605.0;;;20.13;66.77
81816;BME280;71249;52.084;5.304;2023-07-13T08:59:18;101607.0;;;20.27;68.19
81816;BME280;71249;52.084;5.304;2023-07-13T09:02:48;101599.0;;;20.34;66.7
81816;BME280;71249;52.084;5.304;2023-07-13T09:04:33;101605.0;;;20.3;66.75
81816;BME280;71249;52.084;5.304;2023-07-13T09:06:12;101605.0;;;20.48;66.84
81816;BME280;71249;52.084;5.304;2023-07-13T09:08:02;101613.0;;;20.54;68.16
81816;BME280;71249;52.084;5.304;2023-07-13T09:10:05;101606.0;;;20.63;67.58
81816;BME280;71249;52.084;5.304;2023-07-13T09:11:50;101599.0;;;20.81;68.19
81816;BME280;71249;52.084;5.304;2023-07-13T09:15:24;101600.0;;;20.86;66.27
81816;BME280;71249;52.084;5.304;2023-07-13T09:17:08;101597.0;;;20.93;65.66
81816;BME280;71249;52.084;5.304;2023-07-13T09:18:50;101598.0;;;21.02;65.13
81816;BME280;71249;52.084;5.304;2023-07-13T09:20:31;101603.0;;;21.23;65.92
81816;BME280;71249;52.084;5.304;2023-07-13T09:22:15;101602.0;;;21.03;63.63
81816;BME280;71249;52.084;5.304;2023-07-13T09:26:01;101599.0;;;21.36;64.8
81816;BME280;71249;52.084;5.304;2023-07-13T09:27:44;101588.0;;;21.46;65.23
81816;BME280;71249;52.084;5.304;2023-07-13T09:29:27;101597.0;;;21.84;65.59
81816;BME280;71249;52.084;5.304;2023-07-13T09:31:09;101599.0;;;21.75;61.45
81816;BME280;71249;52.084;5.304;2023-07-13T09:32:51;101601.0;;;22.19;63.72
81816;BME280;71249;52.084;5.304;2023-07-13T09:36:22;101605.0;;;22.3;63.41
81816;BME280;71249;52.084;5.304;2023-07-13T09:38:04;101609.0;;;22.43;63.49
81816;BME280;71249;52.084;5.304;2023-07-13T09:39:46;101590.0;;;22.28;61.3
81816;BME280;71249;52.084;5.304;2023-07-13T09:41:29;101593.0;;;22.3;59.72
81816;BME280;71249;52.084;5.304;2023-07-13T09:43:11;101594.0;;;22.24;58.53
81816;BME280;71249;52.084;5.304;2023-07-13T09:46:30;101601.0;;;22.27;58.06
81816;BME280;71249;52.084;5.304;2023-07-13T09:48:11;101596.0;;;22.02;60.34
81816;BME280;71249;52.084;5.304;2023-07-13T09:49:54;101616.0;;;21.94;61.17
81816;BME280;71249;52.084;5.304;2023-07-13T09:51:31;101630.0;;;21.8;62.63
81816;BME280;71249;52.084;5.304;2023-07-13T09:54:50;101620.0;;;21.82;63.95
81816;BME280;71249;52.084;5.304;2023-07-13T09:56:29;101618.0;;;21.83;64.02
81816;BME280;71249;52.084;5.304;2023-07-13T09:58:10;101619.0;;;21.66;62.78
81816;BME280;71249;52.084;5.304;2023-07-13T09:59:50;101622.0;;;21.67;63.04
81816;BME280;71249;52.084;5.304;2023-07-13T10:03:17;101625.0;;;21.53;62.62
81816;BME280;71249;52.084;5.304;2023-07-13T10:04:56;101632.0;;;21.55;63.18
81816;BME280;71249;52.084;5.304;2023-07-13T10:06:34;101630.0;;;21.41;63.85
81816;BME280;71249;52.084;5.304;2023-07-13T10:08:21;101627.0;;;21.38;64.67
81816;BME280;71249;52.084;5.304;2023-07-13T10:11:39;101623.0;;;21.4;62.39
81816;BME280;71249;52.084;5.304;2023-07-13T10:13:26;101628.0;;;21.67;66.31
81816;BME280;71249;52.084;5.304;2023-07-13T10:15:18;101627.0;;;21.86;64.36
81816;BME280;71249;52.084;5.304;2023-07-13T10:16:58;101626.0;;;21.88;59.99
81816;BME280;71249;52.084;5.304;2023-07-13T10:18:42;101640.0;;;22.03;61.86
81816;BME280;71249;52.084;5.304;2023-07-13T10:22:00;101634.0;;;22.19;61.31
81816;BME280;71249;52.084;5.304;2023-07-13T10:23:38;101634.0;;;22.48;63.03
81816;BME280;71249;52.084;5.304;2023-07-13T10:25:17;101624.0;;;22.83;63.41
81816;BME280;71249;52.084;5.304;2023-07-13T10:26:58;101626.0;;;22.91;60.31
81816;BME280;71249;52.084;5.304;2023-07-13T10:30:32;101620.0;;;22.99;56.17
81816;BME280;71249;52.084;5.304;2023-07-13T10:32:14;101631.0;;;22.75;59.31
81816;BME280;71249;52.084;5.304;2023-07-13T10:33:51;101640.0;;;22.81;56.33
81816;BME280;71249;52.084;5.304;2023-07-13T10:35:29;101646.0;;;22.83;58.51
81816;BME280;71249;52.084;5.304;2023-07-13T10:38:52;101656.0;;;22.76;57.62
81816;BME280;71249;52.084;5.304;2023-07-13T10:40:34;101652.0;;;22.44;55.71
81816;BME280;71249;52.084;5.304;2023-07-13T10:42:25;101653.0;;;22.48;56.27
81816;BME280;71249;52.084;5.304;2023-07-13T10:44:18;101653.0;;;22.54;55.08
81816;BME280;71249;52.084;5.304;2023-07-13T10:45:56;101650.0;;;22.64;54.49
81816;BME280;71249;52.084;5.304;2023-07-13T10:49:10;101647.0;;;22.85;55.01
81816;BME280;71249;52.084;5.304;2023-07-13T10:50:50;101651.0;;;22.74;53.32
81816;BME280;71249;52.084;5.304;2023-07-13T10:52:46;101646.0;;;22.94;56.28
81816;BME280;71249;52.084;5.304;2023-07-13T10:54:27;101647.0;;;23.14;55.54
81816;BME280;71249;52.084;5.304;2023-07-13T10:58:01;101644.0;;;23.16;52.37
81816;BME280;71249;52.084;5.304;2023-07-13T10:59:38;101644.0;;;23.4;52.85
81816;BME280;71249;52.084;5.304;2023-07-13T11:01:15;101644.0;;;23.44;51.63
81816;BME280;71249;52.084;5.304;2023-07-13T11:02:57;101649.0;;;23.67;52.39
81816;BME280;71249;52.084;5.304;2023-07-13T11:04:40;101644.0;;;23.58;52.25
81816;BME280;71249;52.084;5.304;2023-07-13T11:08:18;101650.0;;;23.58;51.57
81816;BME280;71249;52.084;5.304;2023-07-13T11:09:58;101666.0;;;23.51;53.07
81816;BME280;71249;52.084;5.304;2023-07-13T11:11:37;101655.0;;;23.56;53.66
81816;BME280;71249;52.084;5.304;2023-07-13T11:13:37;101661.0;;;23.57;52.7
81816;BME280;71249;52.084;5.304;2023-07-13T11:15:44;101673.0;;;23.57;52.47